Time;durP1;ratioP1;P1;durP2;ratioP2;P2;SDS_P1;SDS_P2;PMS_P1;PMS_P2;Temp;Humidity;BMP_temperature;BMP_pressure;BME280_temperature;BME280_humidity;BME280_pressure;Samples;Min_cycle;Max_cycle;Signal;HPM_P1;HPM_P2
2019/09/05 00:00:53;;;;;;;5.8;3.9;;;;;;;15.33;79.51758;938.3801;;;;
2019/09/05 00:03:24;;;;;;;5;3.7;;;;;;;15.32;79.42188;938.3369;;;;
2019/09/05 00:05:51;;;;;;;6.5;4.2;;;;;;;15.38;79.07422;938.3822;;;;
2019/09/05 00:08:17;;;;;;;5.6;4;;;;;;;15.43;78.96875;938.317;;;;
2019/09/05 00:10:46;;;;;;;4.3;3.4;;;;;;;15.37;78.91211;938.3845;;;;
2019/09/05 00:13:14;;;;;;;12.9;3.9;;;;;;;15.29;79.06934;938.3428;;;;
2019/09/05 00:15:39;;;;;;;8.6;3.8;;;;;;;15.3;78.96875;938.3066;;;;
2019/09/05 00:18:07;;;;;;;5.4;3.5;;;;;;;15.3;79.01367;938.3219;;;;
2019/09/05 00:20:32;;;;;;;7.7;4.1;;;;;;;15.21;79.3584;938.3576;;;;
2019/09/05 00:22:59;;;;;;;6.2;3.8;;;;;;;15.24;79.17773;938.3336;;;;
2019/09/05 00:25:26;;;;;;;6.9;3.5;;;;;;;15.27;78.92871;938.3791;;;;
2019/09/05 00:28:00;;;;;;;4.5;3.3;;;;;;;15.25;78.84375;938.3544;;;;
2019/09/05 00:30:32;;;;;;;5.3;3.6;;;;;;;15.11;79.03809;938.3488;;;;
2019/09/05 00:32:55;;;;;;;8.1;3.4;;;;;;;15.06;79.20117;938.3756;;;;
2019/09/05 00:35:20;;;;;;;6.5;3.3;;;;;;;14.94;79.57227;938.4252;;;;
2019/09/05 00:37:51;;;;;;;5.2;3.4;;;;;;;14.9;79.63477;938.4263;;;;
2019/09/05 00:40:17;;;;;;;6.1;3.3;;;;;;;14.92;79.49805;938.4622;;;;
2019/09/05 00:42:44;;;;;;;7.3;3.9;;;;;;;14.94;79.66504;938.4172;;;;
2019/09/05 00:45:09;;;;;;;10.6;3.2;;;;;;;15;79.58203;938.444;;;;
2019/09/05 00:47:43;;;;;;;5.5;3.5;;;;;;;15.07;79.30664;938.4317;;;;
2019/09/05 00:50:14;;;;;;;5;3.5;;;;;;;15.09;79.01074;938.3787;;;;
2019/09/05 00:52:41;;;;;;;4.5;3.3;;;;;;;14.9;79.51953;938.3292;;;;
2019/09/05 00:55:09;;;;;;;5.4;3.3;;;;;;;14.93;79.60547;938.3675;;;;
2019/09/05 00:57:36;;;;;;;5.9;3.2;;;;;;;14.99;79.25977;938.3463;;;;
2019/09/05 01:00:02;;;;;;;7.9;3.6;;;;;;;15.01;80.03516;938.3621;;;;
2019/09/05 01:02:28;;;;;;;8.3;3.8;;;;;;;15.08;79.27539;938.3987;;;;
2019/09/05 01:04:57;;;;;;;5.3;3.5;;;;;;;15.06;79.05273;938.3557;;;;
2019/09/05 01:07:27;;;;;;;7;3.5;;;;;;;15.04;79.40625;938.2715;;;;
2019/09/05 01:09:54;;;;;;;4.4;3.1;;;;;;;14.94;79.37598;938.3762;;;;
2019/09/05 01:12:18;;;;;;;6.5;3.1;;;;;;;14.98;79.5332;938.3887;;;;
2019/09/05 01:14:43;;;;;;;5;3;;;;;;;15.07;79.15723;938.2914;;;;
2019/09/05 01:17:16;;;;;;;5.3;3.2;;;;;;;15.04;78.875;938.2964;;;;
2019/09/05 01:19:42;;;;;;;4.1;2.7;;;;;;;15.02;78.8584;938.3599;;;;
2019/09/05 01:22:13;;;;;;;6.7;2.9;;;;;;;15.06;78.49902;938.2914;;;;
2019/09/05 01:24:46;;;;;;;4.4;2.7;;;;;;;15.13;77.87598;938.3102;;;;
2019/09/05 01:27:22;;;;;;;5.8;2.5;;;;;;;15.09;78.2041;938.3097;;;;
2019/09/05 01:29:51;;;;;;;6.7;2.9;;;;;;;14.74;79.41895;938.3132;;;;
2019/09/05 01:32:23;;;;;;;4.5;2.8;;;;;;;14.64;79.66797;938.3283;;;;
2019/09/05 01:35:15;;;;;;;6.1;2.8;;;;;;;14.45;80.34766;938.2386;;;;
2019/09/05 01:37:41;;;;;;;4.5;3;;;;;;;14.22;81.91699;938.2864;;;;
2019/09/05 01:40:12;;;;;;;5.7;3.1;;;;;;;14.3;81.79395;938.2227;;;;
2019/09/05 01:42:43;;;;;;;5.6;2.6;;;;;;;14.55;81.05566;938.2484;;;;
2019/09/05 01:45:09;;;;;;;5.8;3;;;;;;;14.76;80.83105;938.2537;;;;
2019/09/05 01:47:41;;;;;;;6;3.1;;;;;;;14.46;81.43066;938.2392;;;;
2019/09/05 01:50:05;;;;;;;5.8;3;;;;;;;14.32;82.38477;938.2186;;;;
2019/09/05 01:52:33;;;;;;;3.6;2.9;;;;;;;14.45;81.77637;938.2128;;;;
2019/09/05 01:54:59;;;;;;;4.1;3;;;;;;;14.47;81.19238;938.2288;;;;
2019/09/05 01:57:24;;;;;;;4.3;3.1;;;;;;;14.39;81.56836;938.1653;;;;
2019/09/05 01:59:50;;;;;;;5.9;3.4;;;;;;;14.28;81.98633;938.1323;;;;
2019/09/05 02:02:16;;;;;;;5.8;3.2;;;;;;;14.61;81.35742;938.1574;;;;
2019/09/05 02:04:50;;;;;;;4.8;3.1;;;;;;;14.72;80.00391;938.1715;;;;
2019/09/05 02:07:24;;;;;;;6.1;3;;;;;;;14.41;80.91504;938.1019;;;;
2019/09/05 02:09:57;;;;;;;6.4;2.7;;;;;;;14.48;80.89453;938.1022;;;;
2019/09/05 02:12:26;;;;;;;4.1;3.1;;;;;;;14.68;80.6084;938.1188;;;;
2019/09/05 02:14:58;;;;;;;10.3;3;;;;;;;14.93;79.25781;938.074;;;;
2019/09/05 02:17:23;;;;;;;6.3;2.7;;;;;;;14.87;79.19141;938.0776;;;;
2019/09/05 02:19:50;;;;;;;6.6;3;;;;;;;14.98;78.80566;938.0304;;;;
2019/09/05 02:22:17;;;;;;;3.9;2.8;;;;;;;14.9;78.94141;938.0422;;;;
2019/09/05 02:24:41;;;;;;;3.8;2.7;;;;;;;15.12;77.86328;937.9814;;;;
2019/09/05 02:27:06;;;;;;;5.3;2.5;;;;;;;15.09;77.95996;937.944;;;;
2019/09/05 02:29:37;;;;;;;7;2.9;;;;;;;15.15;78.09863;937.9796;;;;
2019/09/05 02:32:01;;;;;;;5.8;2.9;;;;;;;15.33;77.88965;937.995;;;;
2019/09/05 02:34:34;;;;;;;3.4;2.6;;;;;;;15.46;77.50879;938.0053;;;;
2019/09/05 02:37:01;;;;;;;4.3;3;;;;;;;15.53;77.88867;938.0287;;;;
2019/09/05 02:39:25;;;;;;;4.4;2.8;;;;;;;15.53;77.05762;937.9807;;;;
2019/09/05 02:41:51;;;;;;;6.2;2.5;;;;;;;15.31;77.25195;937.8764;;;;
2019/09/05 02:44:15;;;;;;;5.9;2.5;;;;;;;15.32;77.30957;937.8652;;;;
2019/09/05 02:46:52;;;;;;;6;2.3;;;;;;;15.39;77.14941;937.8236;;;;
2019/09/05 02:49:11;;;;;;;3.6;2.3;;;;;;;15.52;76.80371;937.8193;;;;
2019/09/05 02:51:42;;;;;;;12.5;3.2;;;;;;;15.4;77.04688;937.8292;;;;
2019/09/05 02:54:17;;;;;;;9;2.9;;;;;;;15.45;77.05469;937.7767;;;;
2019/09/05 02:57:15;;;;;;;5.3;2.9;;;;;;;15.55;78.04297;937.848;;;;
2019/09/05 02:59:47;;;;;;;6.3;2.7;;;;;;;15.34;77.2334;937.8256;;;;
2019/09/05 03:02:12;;;;;;;5;2.3;;;;;;;15.3;77.4668;937.8301;;;;
2019/09/05 03:04:47;;;;;;;4.7;2.4;;;;;;;15.28;77.88086;937.7981;;;;
2019/09/05 03:07:16;;;;;;;5.8;2.7;;;;;;;15.42;79.2666;937.8092;;;;
2019/09/05 03:09:47;;;;;;;4.6;2.7;;;;;;;15.45;77.05469;937.7808;;;;
2019/09/05 03:12:08;;;;;;;9.7;3.1;;;;;;;15.47;77.10547;937.75;;;;
2019/09/05 03:14:35;;;;;;;4.9;2.6;;;;;;;15.54;76.65527;937.7381;;;;
2019/09/05 03:17:04;;;;;;;5.1;2.7;;;;;;;15.61;76.7041;937.6863;;;;
2019/09/05 03:19:28;;;;;;;3.8;2.7;;;;;;;15.66;76.31934;937.7582;;;;
2019/09/05 03:22:07;;;;;;;4.5;2.8;;;;;;;15.71;77.13574;937.7505;;;;
2019/09/05 03:24:36;;;;;;;4.1;2.2;;;;;;;15.81;76.4248;937.7614;;;;
2019/09/05 03:27:06;;;;;;;5.6;2.7;;;;;;;15.84;76.50098;937.7269;;;;
2019/09/05 03:29:37;;;;;;;6.5;2.6;;;;;;;15.72;76.63086;937.7142;;;;
2019/09/05 03:32:07;;;;;;;3.8;2.6;;;;;;;15.66;77.25488;937.751;;;;
2019/09/05 03:34:34;;;;;;;5.4;2.6;;;;;;;15.75;77.27051;937.7212;;;;
2019/09/05 03:37:04;;;;;;;6.9;2.9;;;;;;;15.84;76.62793;937.7316;;;;
2019/09/05 03:39:32;;;;;;;6.2;2.9;;;;;;;15.81;76.4248;937.7734;;;;
2019/09/05 03:42:01;;;;;;;5.6;2.8;;;;;;;15.77;76.5;937.794;;;;
2019/09/05 03:44:27;;;;;;;4.6;2.9;;;;;;;15.45;77.86426;937.8024;;;;
2019/09/05 03:47:00;;;;;;;4.3;2.9;;;;;;;15.45;77.95703;937.8633;;;;
2019/09/05 03:49:40;;;;;;;4.6;2.7;;;;;;;15.6;77.38184;937.9071;;;;
2019/09/05 03:52:21;;;;;;;5.2;2.8;;;;;;;15.73;77.10449;937.8844;;;;
2019/09/05 03:54:48;;;;;;;5.2;2.5;;;;;;;15.64;77.2168;937.8187;;;;
2019/09/05 03:57:18;;;;;;;3.9;3;;;;;;;15.63;78.99316;937.8445;;;;
2019/09/05 03:59:45;;;;;;;5.4;2.9;;;;;;;15.76;78.36816;937.9122;;;;
2019/09/05 04:02:37;;;;;;;5.7;2.9;;;;;;;15.85;77.55371;937.9844;;;;
2019/09/05 04:05:06;;;;;;;4.3;2.7;;;;;;;15.9;77.2959;937.9639;;;;
2019/09/05 04:07:32;;;;;;;4.3;2.8;;;;;;;15.97;77.32031;938.0256;;;;
2019/09/05 04:10:14;;;;;;;8.5;3;;;;;;;16.04;76.58008;938.05;;;;
2019/09/05 04:12:39;;;;;;;5.9;2.8;;;;;;;16.05;76.39844;938.0475;;;;
2019/09/05 04:15:06;;;;;;;5.6;2.8;;;;;;;16;75.62598;938.0831;;;;
2019/09/05 04:17:35;;;;;;;5.4;2.8;;;;;;;15.98;76.00586;938.0311;;;;
2019/09/05 04:20:02;;;;;;;4.7;3;;;;;;;15.95;76.17285;938.1038;;;;
2019/09/05 04:22:41;;;;;;;5.1;2.8;;;;;;;16.05;76.46582;938.0547;;;;
2019/09/05 04:25:03;;;;;;;5.9;2.9;;;;;;;16.05;76.06445;938.0941;;;;
2019/09/05 04:27:31;;;;;;;7.2;2.7;;;;;;;16.02;76.18555;938.1337;;;;
2019/09/05 04:29:59;;;;;;;4.6;2.8;;;;;;;16.04;75.875;938.0886;;;;
2019/09/05 04:32:23;;;;;;;6.8;2.6;;;;;;;15.97;76.00293;938.1542;;;;
2019/09/05 04:34:52;;;;;;;5.3;2.7;;;;;;;16.02;75.86035;938.1747;;;;
2019/09/05 04:37:18;;;;;;;7.1;2.8;;;;;;;16;75.59082;938.2028;;;;
2019/09/05 04:39:50;;;;;;;4.8;2.6;;;;;;;16.03;76.05957;938.2197;;;;
2019/09/05 04:42:21;;;;;;;4.6;2.7;;;;;;;16.09;75.91895;938.2012;;;;
2019/09/05 04:44:53;;;;;;;4.8;2.8;;;;;;;16.2;76.02051;938.1638;;;;
2019/09/05 04:47:25;;;;;;;5.1;2.5;;;;;;;16.23;75.50586;938.2006;;;;
2019/09/05 04:49:51;;;;;;;5.3;2.8;;;;;;;16.27;75.60352;938.2324;;;;
2019/09/05 04:52:20;;;;;;;4.3;2.7;;;;;;;16.23;75.27246;938.2496;;;;
2019/09/05 04:54:47;;;;;;;6.2;2.8;;;;;;;16.22;75.54785;938.2623;;;;
2019/09/05 04:57:18;;;;;;;3.9;2.8;;;;;;;16.04;76.31543;938.2637;;;;
2019/09/05 04:59:50;;;;;;;6.5;3.3;;;;;;;15.76;77.4668;938.3649;;;;
2019/09/05 05:02:15;;;;;;;5.9;3.1;;;;;;;15.73;78.16699;938.3275;;;;
2019/09/05 05:04:43;;;;;;;4.9;2.7;;;;;;;15.76;77.81348;938.3192;;;;
2019/09/05 05:07:10;;;;;;;5.2;3;;;;;;;15.74;77.92578;938.2424;;;;
2019/09/05 05:09:42;;;;;;;6.2;3;;;;;;;15.68;78.28613;938.2534;;;;
2019/09/05 05:12:12;;;;;;;9.8;4.5;;;;;;;15.86;78.48047;938.2502;;;;
2019/09/05 05:14:45;;;;;;;11.9;6.5;;;;;;;16.03;78.48828;938.259;;;;
2019/09/05 05:17:11;;;;;;;8.2;5.1;;;;;;;16.13;76.95605;938.187;;;;
2019/09/05 05:19:42;;;;;;;7.7;4.9;;;;;;;16.23;76.85742;938.2078;;;;
2019/09/05 05:22:02;;;;;;;9.1;3.9;;;;;;;16.26;76.7373;938.2734;;;;
2019/09/05 05:24:31;;;;;;;12.1;4.2;;;;;;;16.27;75.9502;938.2202;;;;
2019/09/05 05:27:03;;;;;;;8.5;3.9;;;;;;;16.17;76.04883;938.2413;;;;
2019/09/05 05:29:32;;;;;;;12.4;3.9;;;;;;;16.28;76.63477;938.2185;;;;
2019/09/05 05:31:55;;;;;;;13;4.1;;;;;;;16.36;76.12793;938.2167;;;;
2019/09/05 05:34:29;;;;;;;9.6;3.4;;;;;;;16.38;75.70313;938.2132;;;;
2019/09/05 05:37:02;;;;;;;9.8;3.4;;;;;;;16.33;76.04199;938.1721;;;;
2019/09/05 05:39:28;;;;;;;6.8;3.2;;;;;;;16.48;76.19434;938.2403;;;;
2019/09/05 05:42:00;;;;;;;7.8;3;;;;;;;16.51;76.57129;938.2672;;;;
2019/09/05 05:44:36;;;;;;;9.4;3.1;;;;;;;16.61;76.05566;938.2241;;;;
2019/09/05 05:47:01;;;;;;;5.3;3;;;;;;;16.38;76.13086;938.2567;;;;
2019/09/05 05:49:32;;;;;;;4.6;3;;;;;;;16.39;77.07129;938.2427;;;;
2019/09/05 05:51:59;;;;;;;7.2;3.3;;;;;;;16.48;77.59668;938.2725;;;;
2019/09/05 05:54:31;;;;;;;6.8;3.4;;;;;;;16.52;76.83887;938.251;;;;
2019/09/05 05:56:55;;;;;;;5.9;3.1;;;;;;;16.61;77.25977;938.3141;;;;
2019/09/05 05:59:26;;;;;;;7.7;3.3;;;;;;;16.67;76.81934;938.2592;;;;
2019/09/05 06:01:53;;;;;;;6.4;3.3;;;;;;;16.75;76.70508;938.2717;;;;
2019/09/05 06:04:24;;;;;;;6.7;3.1;;;;;;;16.72;74.52246;938.2433;;;;
2019/09/05 06:06:49;;;;;;;8.2;3.5;;;;;;;16.71;76.07324;938.302;;;;
2019/09/05 06:09:21;;;;;;;9.9;3.5;;;;;;;16.77;76.45313;938.3237;;;;
2019/09/05 06:11:52;;;;;;;8.4;3.6;;;;;;;16.79;75.52148;938.3;;;;
2019/09/05 06:14:16;;;;;;;8.8;3.4;;;;;;;16.77;74.75195;938.2907;;;;
2019/09/05 06:16:48;;;;;;;7.9;3.2;;;;;;;16.64;75.60938;938.3317;;;;
2019/09/05 06:19:12;;;;;;;7.7;3;;;;;;;16.56;75.54883;938.3912;;;;
2019/09/05 06:21:42;;;;;;;8.6;3.1;;;;;;;16.62;76.86816;938.4301;;;;
2019/09/05 06:24:06;;;;;;;8.5;3.5;;;;;;;16.7;76.61621;938.3786;;;;
2019/09/05 06:26:40;;;;;;;8.7;3.4;;;;;;;16.8;76.44824;938.4286;;;;
2019/09/05 06:29:12;;;;;;;6.2;3.2;;;;;;;16.8;76.04297;938.448;;;;
2019/09/05 06:31:43;;;;;;;7.7;3.4;;;;;;;16.83;75.72266;938.4068;;;;
2019/09/05 06:34:18;;;;;;;7.2;3.5;;;;;;;16.84;76.28223;938.4356;;;;
2019/09/05 06:36:42;;;;;;;6.7;3.5;;;;;;;16.81;76.29883;938.455;;;;
2019/09/05 06:39:09;;;;;;;7.8;3.5;;;;;;;16.73;76.94629;938.4497;;;;
2019/09/05 06:41:37;;;;;;;10;3.4;;;;;;;16.72;76.83887;938.4274;;;;
2019/09/05 06:44:09;;;;;;;6.9;3;;;;;;;16.73;77.5127;938.4714;;;;
2019/09/05 06:46:38;;;;;;;7;3.2;;;;;;;16.68;77.96777;938.5002;;;;
2019/09/05 06:49:15;;;;;;;8.7;3.4;;;;;;;16.71;77.68262;938.4684;;;;
2019/09/05 06:51:49;;;;;;;5.7;3.1;;;;;;;16.65;77.98438;938.5623;;;;
2019/09/05 06:54:17;;;;;;;5.2;3.5;;;;;;;16.62;78.10645;938.6038;;;;
2019/09/05 06:56:45;;;;;;;11.3;3.7;;;;;;;16.68;78.02344;938.6516;;;;
2019/09/05 06:59:06;;;;;;;8.8;3.7;;;;;;;16.69;78.12109;938.6433;;;;
2019/09/05 07:01:33;;;;;;;10.6;4.1;;;;;;;16.68;78.38281;938.7488;;;;
2019/09/05 07:04:12;;;;;;;12;4.3;;;;;;;16.68;78.74219;938.752;;;;
2019/09/05 07:06:46;;;;;;;9.1;4;;;;;;;16.52;79.69824;938.7687;;;;
2019/09/05 07:09:36;;;;;;;9.7;3.8;;;;;;;16.55;79.72656;938.7555;;;;
2019/09/05 07:12:05;;;;;;;11.6;4.1;;;;;;;16.54;79.91113;938.7595;;;;
2019/09/05 07:14:37;;;;;;;13.2;4.2;;;;;;;16.62;79.02148;938.9098;;;;
2019/09/05 07:17:07;;;;;;;12.7;4.2;;;;;;;16.71;78.03027;938.8794;;;;
2019/09/05 07:19:32;;;;;;;12.9;3.8;;;;;;;16.77;78.13281;938.9141;;;;
2019/09/05 07:22:01;;;;;;;11.3;3.7;;;;;;;16.83;77.80762;938.9361;;;;
2019/09/05 07:24:23;;;;;;;11.2;3.7;;;;;;;16.84;77.60254;938.8596;;;;
2019/09/05 07:26:51;;;;;;;6;3.6;;;;;;;16.88;77.9668;938.92;;;;
2019/09/05 07:29:20;;;;;;;8.8;3.5;;;;;;;16.9;78.33008;938.9673;;;;
2019/09/05 07:32:14;;;;;;;8.3;4.1;;;;;;;16.95;77.5752;938.9584;;;;
2019/09/05 07:34:43;;;;;;;10.2;3.8;;;;;;;17.02;77.43555;938.9278;;;;
2019/09/05 07:37:21;;;;;;;11.6;4.2;;;;;;;16.91;77.17383;938.9542;;;;
2019/09/05 07:40:00;;;;;;;12;4.1;;;;;;;16.98;76.72266;938.9855;;;;
2019/09/05 07:42:27;;;;;;;10.3;4;;;;;;;16.89;77.13574;938.9995;;;;
2019/09/05 07:44:57;;;;;;;9.4;4.3;;;;;;;16.45;77.87988;938.9939;;;;
2019/09/05 07:47:22;;;;;;;8.5;3.9;;;;;;;16.5;78.0957;938.9161;;;;
2019/09/05 07:49:52;;;;;;;9.3;4.2;;;;;;;16.61;77.49121;938.9951;;;;
2019/09/05 07:52:30;;;;;;;12.3;4.2;;;;;;;16.53;77.54492;939.0692;;;;
2019/09/05 07:55:01;;;;;;;10.9;3.9;;;;;;;16.64;77.01172;939.0359;;;;
2019/09/05 07:57:56;;;;;;;7.4;3.7;;;;;;;16.51;76.05176;938.9979;;;;
2019/09/05 08:00:22;;;;;;;8.7;3.8;;;;;;;16.38;77.83203;939.0466;;;;
2019/09/05 08:02:51;;;;;;;8.7;3.7;;;;;;;16.61;77.2832;939.0072;;;;
2019/09/05 08:05:22;;;;;;;8.8;3.6;;;;;;;16.37;75.9209;939.1142;;;;
2019/09/05 08:07:54;;;;;;;8.2;3.6;;;;;;;16.52;77.93848;939.1434;;;;
2019/09/05 08:10:23;;;;;;;7.4;3.9;;;;;;;16.44;78.41016;939.2191;;;;
2019/09/05 08:12:53;;;;;;;7.9;3.6;;;;;;;16.31;78.12012;939.2717;;;;
2019/09/05 08:15:22;;;;;;;10.6;4;;;;;;;16.31;78.74609;939.319;;;;
2019/09/05 08:17:49;;;;;;;13;3.7;;;;;;;16.26;79.36133;939.3992;;;;
2019/09/05 08:20:17;;;;;;;8.9;3.6;;;;;;;16.43;79.35742;939.4088;;;;
2019/09/05 08:22:50;;;;;;;7.4;4.3;;;;;;;16.33;78.72461;939.3647;;;;
2019/09/05 08:25:11;;;;;;;9.2;4.5;;;;;;;16.51;78.53906;939.4771;;;;
2019/09/05 08:27:46;;;;;;;9.4;3.9;;;;;;;16.73;77.32715;939.4501;;;;
2019/09/05 08:30:12;;;;;;;10.4;4.2;;;;;;;16.83;79.1748;939.5795;;;;
2019/09/05 08:32:44;;;;;;;9.9;4.1;;;;;;;17.02;79.55859;939.5491;;;;
2019/09/05 08:35:17;;;;;;;11.3;5.1;;;;;;;17.15;80.0918;939.5691;;;;
2019/09/05 08:37:38;;;;;;;12.6;4.1;;;;;;;17.23;79.31641;939.5112;;;;
2019/09/05 08:40:19;;;;;;;11.2;4.2;;;;;;;17.1;80.09473;939.5392;;;;
2019/09/05 08:42:52;;;;;;;10.7;3.7;;;;;;;17.01;80.58691;939.6117;;;;
2019/09/05 08:45:15;;;;;;;11.4;4.9;;;;;;;17.09;81.04199;939.6415;;;;
2019/09/05 08:47:48;;;;;;;9.3;5.7;;;;;;;16.98;82.59766;939.6611;;;;
2019/09/05 08:50:22;;;;;;;11.8;5.6;;;;;;;16.97;83.07324;939.671;;;;
2019/09/05 08:52:54;;;;;;;7;3.8;;;;;;;16.83;81.30664;939.7227;;;;
2019/09/05 08:55:20;;;;;;;9.4;4.2;;;;;;;16.69;79.66016;939.7224;;;;
2019/09/05 08:57:53;;;;;;;8.5;4.5;;;;;;;16.64;81.03906;939.7798;;;;
2019/09/05 09:00:24;;;;;;;9.9;3.6;;;;;;;16.7;79.49902;939.793;;;;
2019/09/05 09:02:49;;;;;;;7.5;3.9;;;;;;;16.8;79.61035;939.8183;;;;
2019/09/05 09:05:17;;;;;;;7.4;3.7;;;;;;;16.79;79.72266;939.8499;;;;
2019/09/05 09:07:43;;;;;;;8.3;3.8;;;;;;;16.57;79.5332;939.9048;;;;
2019/09/05 09:10:12;;;;;;;7.2;3.6;;;;;;;16.62;78.54688;939.8483;;;;
2019/09/05 09:12:38;;;;;;;10.6;3.7;;;;;;;16.6;78.85645;939.8915;;;;
2019/09/05 09:15:16;;;;;;;12.9;4.1;;;;;;;16.5;79.625;939.9755;;;;
2019/09/05 09:17:50;;;;;;;6.8;4;;;;;;;16.23;79.2627;939.974;;;;
2019/09/05 09:20:18;;;;;;;7.5;4.2;;;;;;;15.94;80.86328;940.1342;;;;
2019/09/05 09:22:49;;;;;;;10;4.4;;;;;;;15.74;81.46387;940.1163;;;;
2019/09/05 09:25:17;;;;;;;7.4;4.5;;;;;;;15.79;82.16504;940.1078;;;;
2019/09/05 09:27:50;;;;;;;7.6;4.8;;;;;;;15.87;82.50293;940.0681;;;;
2019/09/05 09:30:18;;;;;;;9.9;4.9;;;;;;;15.87;81.94824;940.134;;;;
2019/09/05 09:32:52;;;;;;;10;4.7;;;;;;;16.05;81.37207;940.1536;;;;
2019/09/05 09:35:25;;;;;;;10.4;5.3;;;;;;;15.88;81.8125;940.1885;;;;
2019/09/05 09:37:55;;;;;;;8.3;4.9;;;;;;;15.87;81.8916;940.207;;;;
2019/09/05 09:40:27;;;;;;;8.9;4.9;;;;;;;16.01;80.5293;940.1738;;;;
2019/09/05 09:43:12;;;;;;;8.7;4.6;;;;;;;15.78;80.83496;940.2146;;;;
2019/09/05 09:45:45;;;;;;;7.7;4.7;;;;;;;15.94;80.65625;940.2033;;;;
2019/09/05 09:48:10;;;;;;;10.9;4.8;;;;;;;15.95;80.4043;940.2779;;;;
2019/09/05 09:50:43;;;;;;;9.6;4.7;;;;;;;15.95;81.01855;940.2867;;;;
2019/09/05 09:53:16;;;;;;;8.5;4.8;;;;;;;15.87;80.08887;940.289;;;;
2019/09/05 09:55:46;;;;;;;11.1;5.1;;;;;;;15.85;81.77246;940.3188;;;;
2019/09/05 09:58:11;;;;;;;11.7;5.4;;;;;;;15.76;82.01953;940.3112;;;;
2019/09/05 10:00:43;;;;;;;7.7;4.9;;;;;;;15.64;82.18262;940.2759;;;;
2019/09/05 10:03:02;;;;;;;9.3;5.3;;;;;;;15.95;82.26563;940.2698;;;;
2019/09/05 10:05:29;;;;;;;8.4;4.9;;;;;;;15.94;81.34863;940.2555;;;;
2019/09/05 10:07:56;;;;;;;8.7;5.4;;;;;;;15.86;81.93652;940.1967;;;;
2019/09/05 10:10:23;;;;;;;9.1;5.3;;;;;;;16.06;81.9043;940.2933;;;;
2019/09/05 10:12:55;;;;;;;12.1;5.2;;;;;;;16.21;81.50488;940.2896;;;;
2019/09/05 10:15:22;;;;;;;11.2;5.3;;;;;;;16.27;81.27148;940.2106;;;;
2019/09/05 10:17:53;;;;;;;8.5;5;;;;;;;16.25;82.00879;940.231;;;;
2019/09/05 10:20:25;;;;;;;10.3;5.8;;;;;;;16.5;81.25586;940.2425;;;;
2019/09/05 10:22:58;;;;;;;9.2;4.9;;;;;;;16.54;79.79395;940.287;;;;
2019/09/05 10:25:29;;;;;;;8.6;4.6;;;;;;;16.52;80.14941;940.3203;;;;
2019/09/05 10:28:01;;;;;;;6.7;4.6;;;;;;;16.51;79.93945;940.3267;;;;
2019/09/05 10:30:33;;;;;;;8.7;4.9;;;;;;;16.63;80.05176;940.2977;;;;
2019/09/05 10:33:02;;;;;;;9.9;4.8;;;;;;;16.65;80.2207;940.3336;;;;
2019/09/05 10:35:33;;;;;;;8.1;5.3;;;;;;;16.68;80.05078;940.3586;;;;
2019/09/05 10:38:04;;;;;;;9.9;5.2;;;;;;;16.69;80.32031;940.3569;;;;
2019/09/05 10:40:38;;;;;;;7.7;5.2;;;;;;;16.85;80.31543;940.2951;;;;
2019/09/05 10:43:08;;;;;;;9.1;5.6;;;;;;;16.79;79.22656;940.4048;;;;
2019/09/05 10:45:30;;;;;;;8.2;4.8;;;;;;;16.9;78.91016;940.3822;;;;
2019/09/05 10:48:06;;;;;;;9;5.3;;;;;;;17;79.05469;940.3664;;;;
2019/09/05 10:50:19;;;;;;;10;5.3;;;;;;;17.1;78.31934;940.2803;;;;
2019/09/05 10:52:53;;;;;;;7.2;5.2;;;;;;;17.23;78.18164;940.3256;;;;
2019/09/05 10:55:16;;;;;;;9;5;;;;;;;17.33;78.16406;940.2889;;;;
2019/09/05 10:57:45;;;;;;;8.7;5.4;;;;;;;17.19;78.5332;940.3653;;;;
2019/09/05 11:00:08;;;;;;;9.4;5.3;;;;;;;16.91;78.2627;940.3257;;;;
2019/09/05 11:02:37;;;;;;;8.6;4.8;;;;;;;17.09;78.22656;940.3689;;;;
2019/09/05 11:05:05;;;;;;;7.6;4.6;;;;;;;17.17;77.61328;940.4041;;;;
2019/09/05 11:07:31;;;;;;;10.2;5.5;;;;;;;17.23;77.82227;940.4286;;;;
2019/09/05 11:09:57;;;;;;;7.8;5.3;;;;;;;17.27;77.5166;940.4675;;;;
2019/09/05 11:12:23;;;;;;;8.8;5.2;;;;;;;17.17;79.04004;940.4669;;;;
2019/09/05 11:14:47;;;;;;;10.1;5.5;;;;;;;17.01;80.18066;940.4911;;;;
2019/09/05 11:17:18;;;;;;;10;5.2;;;;;;;17;80.41113;940.4743;;;;
2019/09/05 11:19:44;;;;;;;9.3;5.1;;;;;;;17.16;79.5;940.4316;;;;
2019/09/05 11:22:16;;;;;;;9.6;5.5;;;;;;;17.18;78.4502;940.3436;;;;
2019/09/05 11:24:46;;;;;;;9.3;5.4;;;;;;;17.25;79.76172;940.4389;;;;
2019/09/05 11:27:20;;;;;;;6.9;5.2;;;;;;;17.35;78.42285;940.3611;;;;
2019/09/05 11:29:41;;;;;;;8.7;5.3;;;;;;;17.42;77.5293;940.3669;;;;
2019/09/05 11:32:13;;;;;;;11.2;5.3;;;;;;;17.51;77.97559;940.4397;;;;
2019/09/05 11:37:13;;;;;;;9.1;5.5;;;;;;;17.48;77.80762;940.4402;;;;
2019/09/05 11:39:45;;;;;;;11.4;5.5;;;;;;;17.47;78.03809;940.4314;;;;
2019/09/05 11:42:14;;;;;;;8.8;5.5;;;;;;;17.61;77.57617;940.51;;;;
2019/09/05 11:44:45;;;;;;;10.7;5.6;;;;;;;17.62;75.53516;940.5528;;;;
2019/09/05 11:47:12;;;;;;;6.8;5.2;;;;;;;17.68;76.05469;940.5845;;;;
2019/09/05 11:49:48;;;;;;;8.6;5.3;;;;;;;17.75;76.95117;940.5432;;;;
2019/09/05 11:52:20;;;;;;;9;5.5;;;;;;;17.67;77.52734;940.5247;;;;
2019/09/05 11:54:52;;;;;;;10.6;5.3;;;;;;;17.6;77.57422;940.5383;;;;
2019/09/05 11:57:25;;;;;;;7.8;5.5;;;;;;;17.45;77.62988;940.5339;;;;
2019/09/05 12:02:15;;;;;;;7.3;5.1;;;;;;;17.58;76.66602;940.4894;;;;
2019/09/05 12:04:49;;;;;;;7.4;5.2;;;;;;;17.66;76.58594;940.5201;;;;
2019/09/05 12:07:19;;;;;;;9;5;;;;;;;17.77;75.78027;940.5744;;;;
2019/09/05 12:09:49;;;;;;;8.5;5;;;;;;;17.81;75.21777;940.5666;;;;
2019/09/05 12:12:16;;;;;;;8.6;5.1;;;;;;;17.84;74.90039;940.5187;;;;
2019/09/05 12:14:44;;;;;;;8;5.1;;;;;;;17.89;75.25684;940.5276;;;;
2019/09/05 12:17:13;;;;;;;6.7;4.7;;;;;;;17.86;76.15625;940.5114;;;;
2019/09/05 12:25:06;;;;;;;13.2;5.1;;;;;;;17.97;75.08496;940.5539;;;;
2019/09/05 12:27:37;;;;;;;7.8;4.6;;;;;;;18.02;73.76855;940.5694;;;;
2019/09/05 12:30:07;;;;;;;8.1;4.6;;;;;;;18.09;74.51172;940.5168;;;;
2019/09/05 12:33:14;;;;;;;8.6;5;;;;;;;18.19;75.51465;940.5274;;;;
2019/09/05 12:35:39;;;;;;;6.6;4.7;;;;;;;18.27;74.91309;940.4917;;;;
2019/09/05 12:38:08;;;;;;;8.5;4.7;;;;;;;18.31;74.31836;940.4724;;;;
2019/09/05 12:40:32;;;;;;;8.9;4.6;;;;;;;18.4;74.49609;940.5056;;;;
2019/09/05 12:43:14;;;;;;;7.9;4.7;;;;;;;18.37;73.01367;940.4481;;;;
2019/09/05 12:45:23;;;;;;;9.7;4.5;;;;;;;18.26;71.90332;940.3773;;;;
2019/09/05 12:47:56;;;;;;;8.7;4.7;;;;;;;18.35;72.95117;940.2969;;;;
2019/09/05 12:50:31;;;;;;;7.7;4.7;;;;;;;18.48;73.90332;940.2441;;;;
2019/09/05 12:52:56;;;;;;;7.3;4.6;;;;;;;18.3;73.41992;940.3542;;;;
2019/09/05 12:55:27;;;;;;;9.2;4.8;;;;;;;18.28;73.51953;940.3078;;;;
2019/09/05 12:57:53;;;;;;;9.2;5;;;;;;;18.16;73.95313;940.2917;;;;
2019/09/05 13:00:21;;;;;;;6.5;4.9;;;;;;;18.07;75.22949;940.3488;;;;
2019/09/05 13:02:43;;;;;;;9.8;5.6;;;;;;;17.83;74.97852;940.3981;;;;
2019/09/05 13:05:10;;;;;;;8.1;5.1;;;;;;;17.83;75.75684;940.3973;;;;
2019/09/05 13:07:59;;;;;;;8.2;5.7;;;;;;;17.79;75.62305;940.3622;;;;
2019/09/05 13:10:14;;;;;;;11.3;6;;;;;;;17.72;75.93359;940.3753;;;;
2019/09/05 13:12:42;;;;;;;8.6;6;;;;;;;17.54;76.54199;940.3853;;;;
2019/09/05 13:15:11;;;;;;;9.2;6.5;;;;;;;17.39;77.38574;940.3524;;;;
2019/09/05 13:17:47;;;;;;;10.8;6.2;;;;;;;17.54;76.9834;940.4038;;;;
2019/09/05 13:20:14;;;;;;;8.8;6.1;;;;;;;17.61;77.05176;940.3658;;;;
2019/09/05 13:22:44;;;;;;;9.4;6.2;;;;;;;17.34;77.27148;940.432;;;;
2019/09/05 13:25:09;;;;;;;7.3;5.7;;;;;;;17.36;77.27637;940.3875;;;;
2019/09/05 13:27:42;;;;;;;8;5.6;;;;;;;17.61;77.00586;940.3948;;;;
2019/09/05 13:30:15;;;;;;;8.9;5.7;;;;;;;17.46;77.79199;940.3752;;;;
2019/09/05 13:32:50;;;;;;;7.3;5.5;;;;;;;17.52;77.6875;940.3743;;;;
2019/09/05 13:35:09;;;;;;;9;5.4;;;;;;;17.42;77.31055;940.465;;;;
2019/09/05 13:37:34;;;;;;;8.7;5.8;;;;;;;17.21;78.2002;940.4567;;;;
2019/09/05 13:40:05;;;;;;;8.9;5.7;;;;;;;17.3;77.96191;940.4728;;;;
2019/09/05 13:42:40;;;;;;;8.2;5.6;;;;;;;17.35;77.29785;940.353;;;;
2019/09/05 13:45:05;;;;;;;8.7;5.9;;;;;;;17.36;76.8584;940.3046;;;;
2019/09/05 13:47:45;;;;;;;9.2;5.5;;;;;;;17.03;78.93262;940.4188;;;;
2019/09/05 13:50:12;;;;;;;9.7;5.8;;;;;;;17.1;78.49512;940.463;;;;
2019/09/05 13:55:26;;;;;;;9.8;6.1;;;;;;;16.79;79.2627;940.4458;;;;
2019/09/05 13:57:58;;;;;;;7.9;6.2;;;;;;;16.48;79.63379;940.5231;;;;
2019/09/05 14:00:28;;;;;;;8.1;6.3;;;;;;;16.67;79.26172;940.4922;;;;
2019/09/05 14:03:12;;;;;;;9.1;6.9;;;;;;;16.59;79.94336;940.567;;;;
2019/09/05 14:05:41;;;;;;;9.7;7.2;;;;;;;16.43;81.20898;940.539;;;;
2019/09/05 14:08:09;;;;;;;10.2;7.8;;;;;;;16.41;80.98633;940.5187;;;;
2019/09/05 14:10:34;;;;;;;9.9;7.3;;;;;;;16.33;81.72363;940.6094;;;;
2019/09/05 14:13:02;;;;;;;8.6;6;;;;;;;16.45;80.59961;940.6537;;;;
2019/09/05 14:15:27;;;;;;;8.2;5.1;;;;;;;16.31;80.43359;940.6749;;;;
2019/09/05 14:17:57;;;;;;;6.5;3.8;;;;;;;16.11;80.52637;940.6841;;;;
2019/09/05 14:20:33;;;;;;;4.8;3.5;;;;;;;16.02;80.44043;940.7194;;;;
2019/09/05 14:22:57;;;;;;;5.4;3.3;;;;;;;16.03;80.47656;940.7611;;;;
2019/09/05 14:25:30;;;;;;;4.1;3.2;;;;;;;15.61;80.75879;940.7639;;;;
2019/09/05 14:28:01;;;;;;;5;3.8;;;;;;;15.35;83.41211;940.832;;;;
2019/09/05 14:30:25;;;;;;;5.8;3.6;;;;;;;15.25;84.10645;940.843;;;;
2019/09/05 14:33:16;;;;;;;6.8;3.9;;;;;;;15.23;84.93262;940.8479;;;;
2019/09/05 14:36:11;;;;;;;5.8;4.1;;;;;;;15.05;85.96191;940.8571;;;;
2019/09/05 14:38:11;;;;;;;5.5;4.2;;;;;;;15.02;86.33594;940.8669;;;;
2019/09/05 14:40:41;;;;;;;5.7;3.9;;;;;;;15.06;85.99902;940.91;;;;
2019/09/05 14:43:16;;;;;;;7.3;4;;;;;;;14.94;86.03125;940.8948;;;;
2019/09/05 14:45:46;;;;;;;4.6;3.5;;;;;;;14.79;87.16602;941.0233;;;;
2019/09/05 14:48:15;;;;;;;5.4;3.6;;;;;;;14.74;87.43164;941.0603;;;;
2019/09/05 14:50:41;;;;;;;5.6;3.2;;;;;;;14.85;87.58203;941.0259;;;;
2019/09/05 14:53:09;;;;;;;5.1;3.2;;;;;;;15.02;86.27832;941.0577;;;;